sensor_id;sensor_type;location;lat;lon;timestamp;P1;durP1;ratioP1;P2;durP2;ratioP2
74967;SDS011;63523;51.880;12.630;2023-09-19T00:00:57;3.70;;;0.90;;
74967;SDS011;63523;51.880;12.630;2023-09-19T00:03:23;6.22;;;0.80;;
74967;SDS011;63523;51.880;12.630;2023-09-19T00:05:49;3.10;;;0.80;;
74967;SDS011;63523;51.880;12.630;2023-09-19T00:08:15;3.75;;;0.70;;
74967;SDS011;63523;51.880;12.630;2023-09-19T00:10:41;2.72;;;0.60;;
74967;SDS011;63523;51.880;12.630;2023-09-19T00:13:08;3.53;;;0.82;;
74967;SDS011;63523;51.880;12.630;2023-09-19T00:15:38;3.87;;;0.90;;
74967;SDS011;63523;51.880;12.630;2023-09-19T00:18:05;3.58;;;0.80;;
74967;SDS011;63523;51.880;12.630;2023-09-19T00:20:37;3.83;;;0.70;;
74967;SDS011;63523;51.880;12.630;2023-09-19T00:23:03;3.72;;;0.70;;
74967;SDS011;63523;51.880;12.630;2023-09-19T00:25:29;3.60;;;0.50;;
74967;SDS011;63523;51.880;12.630;2023-09-19T00:27:54;3.10;;;0.77;;
74967;SDS011;63523;51.880;12.630;2023-09-19T00:30:20;2.57;;;0.60;;
74967;SDS011;63523;51.880;12.630;2023-09-19T00:32:49;2.88;;;0.70;;
74967;SDS011;63523;51.880;12.630;2023-09-19T00:35:19;3.35;;;0.60;;
74967;SDS011;63523;51.880;12.630;2023-09-19T00:37:49;3.83;;;0.70;;
74967;SDS011;63523;51.880;12.630;2023-09-19T00:40:14;3.97;;;0.80;;
74967;SDS011;63523;51.880;12.630;2023-09-19T00:42:42;4.10;;;0.70;;
74967;SDS011;63523;51.880;12.630;2023-09-19T00:45:09;2.92;;;0.50;;
74967;SDS011;63523;51.880;12.630;2023-09-19T00:47:42;3.50;;;0.70;;
74967;SDS011;63523;51.880;12.630;2023-09-19T00:50:09;4.90;;;0.80;;
74967;SDS011;63523;51.880;12.630;2023-09-19T00:52:36;3.70;;;0.73;;
74967;SDS011;63523;51.880;12.630;2023-09-19T00:55:04;3.60;;;0.60;;
74967;SDS011;63523;51.880;12.630;2023-09-19T00:57:31;3.28;;;0.90;;
74967;SDS011;63523;51.880;12.630;2023-09-19T00:59:57;2.90;;;0.70;;
74967;SDS011;63523;51.880;12.630;2023-09-19T01:02:24;2.55;;;0.50;;
74967;SDS011;63523;51.880;12.630;2023-09-19T01:04:53;4.70;;;0.65;;
74967;SDS011;63523;51.880;12.630;2023-09-19T01:07:19;2.83;;;0.70;;
74967;SDS011;63523;51.880;12.630;2023-09-19T01:09:44;3.80;;;0.90;;
74967;SDS011;63523;51.880;12.630;2023-09-19T01:12:10;2.80;;;0.70;;
74967;SDS011;63523;51.880;12.630;2023-09-19T01:14:44;3.70;;;0.65;;
74967;SDS011;63523;51.880;12.630;2023-09-19T01:17:24;2.50;;;0.60;;
74967;SDS011;63523;51.880;12.630;2023-09-19T01:22:48;2.80;;;0.77;;
74967;SDS011;63523;51.880;12.630;2023-09-19T01:31:19;3.60;;;0.70;;
74967;SDS011;63523;51.880;12.630;2023-09-19T01:33:55;3.22;;;0.80;;
74967;SDS011;63523;51.880;12.630;2023-09-19T01:36:26;3.50;;;0.77;;
74967;SDS011;63523;51.880;12.630;2023-09-19T01:38:54;3.25;;;0.60;;
74967;SDS011;63523;51.880;12.630;2023-09-19T01:41:26;3.75;;;0.57;;
74967;SDS011;63523;51.880;12.630;2023-09-19T01:43:57;3.97;;;0.80;;
74967;SDS011;63523;51.880;12.630;2023-09-19T01:46:30;3.38;;;0.68;;
74967;SDS011;63523;51.880;12.630;2023-09-19T01:49:44;3.13;;;0.70;;
74967;SDS011;63523;51.880;12.630;2023-09-19T01:52:09;2.70;;;0.73;;
74967;SDS011;63523;51.880;12.630;2023-09-19T01:54:51;3.17;;;0.80;;
74967;SDS011;63523;51.880;12.630;2023-09-19T01:57:22;3.47;;;0.90;;
74967;SDS011;63523;51.880;12.630;2023-09-19T02:00:02;4.40;;;0.70;;
74967;SDS011;63523;51.880;12.630;2023-09-19T02:02:33;4.30;;;0.83;;
74967;SDS011;63523;51.880;12.630;2023-09-19T02:05:01;4.45;;;1.00;;
74967;SDS011;63523;51.880;12.630;2023-09-19T02:07:27;3.00;;;0.70;;
74967;SDS011;63523;51.880;12.630;2023-09-19T02:09:53;5.47;;;0.80;;
74967;SDS011;63523;51.880;12.630;2023-09-19T02:12:20;4.45;;;1.08;;
74967;SDS011;63523;51.880;12.630;2023-09-19T02:14:45;3.47;;;0.90;;
74967;SDS011;63523;51.880;12.630;2023-09-19T02:17:10;4.35;;;1.10;;
74967;SDS011;63523;51.880;12.630;2023-09-19T02:19:37;3.90;;;1.10;;
74967;SDS011;63523;51.880;12.630;2023-09-19T02:22:03;3.83;;;0.87;;
74967;SDS011;63523;51.880;12.630;2023-09-19T02:24:32;6.10;;;1.20;;
74967;SDS011;63523;51.880;12.630;2023-09-19T02:26:58;3.75;;;1.10;;
74967;SDS011;63523;51.880;12.630;2023-09-19T02:29:24;3.33;;;0.97;;
74967;SDS011;63523;51.880;12.630;2023-09-19T02:31:49;4.28;;;0.90;;
74967;SDS011;63523;51.880;12.630;2023-09-19T02:34:15;4.63;;;0.90;;
74967;SDS011;63523;51.880;12.630;2023-09-19T02:36:41;3.13;;;0.98;;
74967;SDS011;63523;51.880;12.630;2023-09-19T02:39:09;5.00;;;1.00;;
74967;SDS011;63523;51.880;12.630;2023-09-19T02:41:36;4.60;;;1.00;;
74967;SDS011;63523;51.880;12.630;2023-09-19T02:44:01;4.23;;;1.10;;
74967;SDS011;63523;51.880;12.630;2023-09-19T02:46:27;3.47;;;1.10;;
74967;SDS011;63523;51.880;12.630;2023-09-19T02:48:52;3.67;;;1.20;;
74967;SDS011;63523;51.880;12.630;2023-09-19T02:51:19;5.18;;;1.25;;
74967;SDS011;63523;51.880;12.630;2023-09-19T02:53:45;3.40;;;1.00;;
74967;SDS011;63523;51.880;12.630;2023-09-19T02:56:12;3.53;;;0.95;;
74967;SDS011;63523;51.880;12.630;2023-09-19T02:58:38;3.33;;;1.00;;
74967;SDS011;63523;51.880;12.630;2023-09-19T03:01:08;4.07;;;0.80;;
74967;SDS011;63523;51.880;12.630;2023-09-19T03:03:43;2.85;;;0.90;;
74967;SDS011;63523;51.880;12.630;2023-09-19T03:06:10;3.10;;;0.90;;
74967;SDS011;63523;51.880;12.630;2023-09-19T03:08:36;3.47;;;0.90;;
74967;SDS011;63523;51.880;12.630;2023-09-19T03:11:04;2.73;;;0.90;;
74967;SDS011;63523;51.880;12.630;2023-09-19T03:13:31;3.20;;;0.70;;
74967;SDS011;63523;51.880;12.630;2023-09-19T03:15:57;2.85;;;0.90;;
74967;SDS011;63523;51.880;12.630;2023-09-19T03:18:23;3.40;;;1.00;;
74967;SDS011;63523;51.880;12.630;2023-09-19T03:20:54;3.88;;;0.98;;
74967;SDS011;63523;51.880;12.630;2023-09-19T03:23:20;4.40;;;1.10;;
74967;SDS011;63523;51.880;12.630;2023-09-19T03:25:45;10.25;;;1.40;;
74967;SDS011;63523;51.880;12.630;2023-09-19T03:28:11;3.00;;;0.90;;
74967;SDS011;63523;51.880;12.630;2023-09-19T03:30:37;3.97;;;0.80;;
74967;SDS011;63523;51.880;12.630;2023-09-19T03:33:03;5.18;;;0.90;;
74967;SDS011;63523;51.880;12.630;2023-09-19T03:35:29;2.75;;;0.70;;
74967;SDS011;63523;51.880;12.630;2023-09-19T03:37:55;3.30;;;0.93;;
74967;SDS011;63523;51.880;12.630;2023-09-19T03:40:20;3.20;;;0.73;;
74967;SDS011;63523;51.880;12.630;2023-09-19T03:42:46;3.73;;;0.73;;
74967;SDS011;63523;51.880;12.630;2023-09-19T03:45:13;3.65;;;0.60;;
74967;SDS011;63523;51.880;12.630;2023-09-19T03:47:41;3.78;;;0.73;;
74967;SDS011;63523;51.880;12.630;2023-09-19T03:50:06;3.67;;;0.93;;
74967;SDS011;63523;51.880;12.630;2023-09-19T03:52:33;3.77;;;0.60;;
74967;SDS011;63523;51.880;12.630;2023-09-19T03:54:59;4.28;;;0.60;;
74967;SDS011;63523;51.880;12.630;2023-09-19T03:57:25;2.92;;;0.70;;
74967;SDS011;63523;51.880;12.630;2023-09-19T03:59:50;3.63;;;0.80;;
74967;SDS011;63523;51.880;12.630;2023-09-19T04:02:18;4.65;;;0.77;;
74967;SDS011;63523;51.880;12.630;2023-09-19T04:04:52;4.18;;;0.73;;
74967;SDS011;63523;51.880;12.630;2023-09-19T04:07:18;2.90;;;0.60;;
74967;SDS011;63523;51.880;12.630;2023-09-19T04:09:47;2.37;;;0.60;;
74967;SDS011;63523;51.880;12.630;2023-09-19T04:12:14;2.97;;;0.73;;
74967;SDS011;63523;51.880;12.630;2023-09-19T04:14:41;3.50;;;0.85;;
74967;SDS011;63523;51.880;12.630;2023-09-19T04:17:07;5.50;;;0.60;;
74967;SDS011;63523;51.880;12.630;2023-09-19T04:19:32;2.27;;;0.50;;
74967;SDS011;63523;51.880;12.630;2023-09-19T04:21:58;3.13;;;0.57;;
74967;SDS011;63523;51.880;12.630;2023-09-19T04:24:23;2.60;;;0.60;;
74967;SDS011;63523;51.880;12.630;2023-09-19T04:26:48;4.27;;;0.80;;
74967;SDS011;63523;51.880;12.630;2023-09-19T04:29:14;3.27;;;0.60;;
74967;SDS011;63523;51.880;12.630;2023-09-19T04:31:39;4.33;;;0.70;;
74967;SDS011;63523;51.880;12.630;2023-09-19T04:34:05;3.95;;;0.70;;
74967;SDS011;63523;51.880;12.630;2023-09-19T04:36:31;5.18;;;0.80;;
74967;SDS011;63523;51.880;12.630;2023-09-19T04:38:56;2.70;;;0.50;;
74967;SDS011;63523;51.880;12.630;2023-09-19T04:41:22;2.75;;;0.60;;
74967;SDS011;63523;51.880;12.630;2023-09-19T04:43:48;3.47;;;0.50;;
74967;SDS011;63523;51.880;12.630;2023-09-19T04:46:15;2.38;;;0.57;;
74967;SDS011;63523;51.880;12.630;2023-09-19T04:48:42;5.30;;;0.60;;
74967;SDS011;63523;51.880;12.630;2023-09-19T04:51:08;5.60;;;0.80;;
74967;SDS011;63523;51.880;12.630;2023-09-19T04:53:33;6.50;;;1.27;;
74967;SDS011;63523;51.880;12.630;2023-09-19T04:55:59;11.60;;;2.13;;
74967;SDS011;63523;51.880;12.630;2023-09-19T04:58:24;15.23;;;2.77;;
74967;SDS011;63523;51.880;12.630;2023-09-19T05:00:49;15.43;;;2.70;;
74967;SDS011;63523;51.880;12.630;2023-09-19T05:03:16;15.52;;;3.05;;
74967;SDS011;63523;51.880;12.630;2023-09-19T05:05:42;15.43;;;2.40;;
74967;SDS011;63523;51.880;12.630;2023-09-19T05:08:07;11.00;;;2.40;;
74967;SDS011;63523;51.880;12.630;2023-09-19T05:10:34;6.93;;;1.47;;
74967;SDS011;63523;51.880;12.630;2023-09-19T05:13:02;6.55;;;1.75;;
74967;SDS011;63523;51.880;12.630;2023-09-19T05:15:29;7.20;;;1.50;;
74967;SDS011;63523;51.880;12.630;2023-09-19T05:17:55;6.53;;;1.40;;
74967;SDS011;63523;51.880;12.630;2023-09-19T05:20:20;7.30;;;1.25;;
74967;SDS011;63523;51.880;12.630;2023-09-19T05:23:03;6.43;;;1.30;;
74967;SDS011;63523;51.880;12.630;2023-09-19T05:25:33;3.63;;;1.08;;
74967;SDS011;63523;51.880;12.630;2023-09-19T05:28:02;5.85;;;1.10;;
74967;SDS011;63523;51.880;12.630;2023-09-19T05:30:28;6.05;;;1.10;;
74967;SDS011;63523;51.880;12.630;2023-09-19T05:32:54;7.70;;;1.33;;
74967;SDS011;63523;51.880;12.630;2023-09-19T05:35:20;8.90;;;1.67;;
74967;SDS011;63523;51.880;12.630;2023-09-19T05:37:46;8.20;;;1.50;;
74967;SDS011;63523;51.880;12.630;2023-09-19T05:40:14;5.57;;;1.37;;
74967;SDS011;63523;51.880;12.630;2023-09-19T05:42:40;7.57;;;1.05;;
74967;SDS011;63523;51.880;12.630;2023-09-19T05:45:06;4.07;;;1.15;;
74967;SDS011;63523;51.880;12.630;2023-09-19T05:47:32;5.27;;;1.03;;
74967;SDS011;63523;51.880;12.630;2023-09-19T05:49:57;3.63;;;0.77;;
74967;SDS011;63523;51.880;12.630;2023-09-19T05:52:24;3.65;;;0.90;;
74967;SDS011;63523;51.880;12.630;2023-09-19T05:54:49;4.10;;;0.67;;
74967;SDS011;63523;51.880;12.630;2023-09-19T05:57:15;3.17;;;0.60;;
74967;SDS011;63523;51.880;12.630;2023-09-19T05:59:41;2.85;;;0.63;;
74967;SDS011;63523;51.880;12.630;2023-09-19T06:02:07;3.67;;;0.77;;
74967;SDS011;63523;51.880;12.630;2023-09-19T06:04:33;2.88;;;0.60;;
74967;SDS011;63523;51.880;12.630;2023-09-19T06:06:59;3.67;;;0.60;;
74967;SDS011;63523;51.880;12.630;2023-09-19T06:09:25;2.40;;;0.50;;
74967;SDS011;63523;51.880;12.630;2023-09-19T06:11:52;3.08;;;0.60;;
74967;SDS011;63523;51.880;12.630;2023-09-19T06:14:18;2.30;;;0.47;;
74967;SDS011;63523;51.880;12.630;2023-09-19T06:16:44;2.90;;;0.70;;
74967;SDS011;63523;51.880;12.630;2023-09-19T06:19:09;3.58;;;0.60;;
74967;SDS011;63523;51.880;12.630;2023-09-19T06:21:35;3.77;;;0.80;;
74967;SDS011;63523;51.880;12.630;2023-09-19T06:24:01;5.20;;;0.68;;
74967;SDS011;63523;51.880;12.630;2023-09-19T06:26:26;3.63;;;0.70;;
74967;SDS011;63523;51.880;12.630;2023-09-19T06:28:52;2.47;;;0.52;;
74967;SDS011;63523;51.880;12.630;2023-09-19T06:31:17;3.67;;;0.70;;
74967;SDS011;63523;51.880;12.630;2023-09-19T06:33:43;2.97;;;0.67;;
74967;SDS011;63523;51.880;12.630;2023-09-19T06:36:08;3.42;;;0.60;;
74967;SDS011;63523;51.880;12.630;2023-09-19T06:38:34;2.90;;;1.00;;
74967;SDS011;63523;51.880;12.630;2023-09-19T06:41:01;4.45;;;0.70;;
74967;SDS011;63523;51.880;12.630;2023-09-19T06:43:29;3.93;;;0.77;;
74967;SDS011;63523;51.880;12.630;2023-09-19T06:45:56;3.80;;;0.80;;
74967;SDS011;63523;51.880;12.630;2023-09-19T06:48:22;2.88;;;1.05;;
74967;SDS011;63523;51.880;12.630;2023-09-19T06:50:50;2.75;;;0.57;;
74967;SDS011;63523;51.880;12.630;2023-09-19T06:53:15;5.57;;;0.83;;
74967;SDS011;63523;51.880;12.630;2023-09-19T06:55:42;3.95;;;1.00;;
74967;SDS011;63523;51.880;12.630;2023-09-19T06:58:08;4.65;;;0.85;;
74967;SDS011;63523;51.880;12.630;2023-09-19T07:00:35;4.45;;;1.27;;
74967;SDS011;63523;51.880;12.630;2023-09-19T07:03:02;4.00;;;0.70;;
74967;SDS011;63523;51.880;12.630;2023-09-19T07:05:33;6.10;;;1.30;;
74967;SDS011;63523;51.880;12.630;2023-09-19T07:08:02;7.10;;;1.85;;
74967;SDS011;63523;51.880;12.630;2023-09-19T07:10:28;6.50;;;1.30;;
74967;SDS011;63523;51.880;12.630;2023-09-19T07:12:56;8.53;;;1.40;;
74967;SDS011;63523;51.880;12.630;2023-09-19T07:15:23;5.70;;;1.30;;
74967;SDS011;63523;51.880;12.630;2023-09-19T07:17:49;7.32;;;1.80;;
74967;SDS011;63523;51.880;12.630;2023-09-19T07:20:15;5.57;;;1.20;;
74967;SDS011;63523;51.880;12.630;2023-09-19T07:22:41;4.55;;;1.00;;
74967;SDS011;63523;51.880;12.630;2023-09-19T07:25:07;6.07;;;1.50;;
74967;SDS011;63523;51.880;12.630;2023-09-19T07:27:33;9.30;;;1.67;;
74967;SDS011;63523;51.880;12.630;2023-09-19T07:29:58;6.90;;;2.10;;
74967;SDS011;63523;51.880;12.630;2023-09-19T07:32:24;5.43;;;1.40;;
74967;SDS011;63523;51.880;12.630;2023-09-19T07:34:49;4.83;;;1.00;;
74967;SDS011;63523;51.880;12.630;2023-09-19T07:37:14;6.70;;;0.93;;
74967;SDS011;63523;51.880;12.630;2023-09-19T07:39:40;6.20;;;1.00;;
74967;SDS011;63523;51.880;12.630;2023-09-19T07:42:06;5.50;;;1.20;;
74967;SDS011;63523;51.880;12.630;2023-09-19T07:44:32;6.00;;;1.42;;
74967;SDS011;63523;51.880;12.630;2023-09-19T07:46:57;5.67;;;1.20;;
74967;SDS011;63523;51.880;12.630;2023-09-19T07:49:22;3.90;;;1.20;;
74967;SDS011;63523;51.880;12.630;2023-09-19T07:51:48;3.67;;;1.10;;
74967;SDS011;63523;51.880;12.630;2023-09-19T07:54:13;8.83;;;2.80;;
74967;SDS011;63523;51.880;12.630;2023-09-19T07:56:39;5.50;;;1.40;;
74967;SDS011;63523;51.880;12.630;2023-09-19T07:59:05;4.18;;;1.10;;
74967;SDS011;63523;51.880;12.630;2023-09-19T08:01:30;5.97;;;1.10;;
74967;SDS011;63523;51.880;12.630;2023-09-19T08:03:56;3.75;;;1.15;;
74967;SDS011;63523;51.880;12.630;2023-09-19T08:06:21;5.30;;;1.30;;
74967;SDS011;63523;51.880;12.630;2023-09-19T08:08:47;6.17;;;1.20;;
74967;SDS011;63523;51.880;12.630;2023-09-19T08:11:16;5.30;;;1.20;;
74967;SDS011;63523;51.880;12.630;2023-09-19T08:13:46;4.43;;;1.00;;
74967;SDS011;63523;51.880;12.630;2023-09-19T08:16:14;3.72;;;0.90;;
74967;SDS011;63523;51.880;12.630;2023-09-19T08:18:40;4.45;;;1.33;;
74967;SDS011;63523;51.880;12.630;2023-09-19T08:21:06;5.57;;;1.30;;
74967;SDS011;63523;51.880;12.630;2023-09-19T08:23:39;6.70;;;1.33;;
74967;SDS011;63523;51.880;12.630;2023-09-19T08:26:04;3.85;;;0.80;;
74967;SDS011;63523;51.880;12.630;2023-09-19T08:28:36;4.40;;;1.15;;
74967;SDS011;63523;51.880;12.630;2023-09-19T08:31:02;4.65;;;1.15;;
74967;SDS011;63523;51.880;12.630;2023-09-19T08:33:29;7.27;;;1.60;;
74967;SDS011;63523;51.880;12.630;2023-09-19T08:35:56;4.80;;;1.30;;
74967;SDS011;63523;51.880;12.630;2023-09-19T08:38:21;5.60;;;1.10;;
74967;SDS011;63523;51.880;12.630;2023-09-19T08:40:47;4.00;;;1.10;;
74967;SDS011;63523;51.880;12.630;2023-09-19T08:43:12;6.30;;;1.47;;
74967;SDS011;63523;51.880;12.630;2023-09-19T08:45:37;6.57;;;1.70;;
74967;SDS011;63523;51.880;12.630;2023-09-19T08:55:55;10.88;;;2.05;;
74967;SDS011;63523;51.880;12.630;2023-09-19T08:58:22;8.88;;;2.22;;
74967;SDS011;63523;51.880;12.630;2023-09-19T09:00:56;8.07;;;2.00;;
74967;SDS011;63523;51.880;12.630;2023-09-19T09:03:23;6.10;;;1.20;;
74967;SDS011;63523;51.880;12.630;2023-09-19T09:05:51;7.82;;;1.95;;
74967;SDS011;63523;51.880;12.630;2023-09-19T09:08:17;8.87;;;2.33;;
74967;SDS011;63523;51.880;12.630;2023-09-19T09:10:45;14.90;;;3.08;;
74967;SDS011;63523;51.880;12.630;2023-09-19T09:13:10;9.30;;;3.00;;
74967;SDS011;63523;51.880;12.630;2023-09-19T09:15:39;11.82;;;2.60;;
74967;SDS011;63523;51.880;12.630;2023-09-19T09:18:06;10.65;;;2.28;;
74967;SDS011;63523;51.880;12.630;2023-09-19T09:20:31;10.00;;;2.20;;
74967;SDS011;63523;51.880;12.630;2023-09-19T09:22:57;10.70;;;2.70;;
74967;SDS011;63523;51.880;12.630;2023-09-19T09:25:46;11.73;;;2.90;;
74967;SDS011;63523;51.880;12.630;2023-09-19T09:28:21;9.30;;;3.20;;
74967;SDS011;63523;51.880;12.630;2023-09-19T09:30:50;9.30;;;1.95;;
74967;SDS011;63523;51.880;12.630;2023-09-19T09:33:16;7.35;;;1.77;;
74967;SDS011;63523;51.880;12.630;2023-09-19T09:36:03;6.17;;;1.67;;
74967;SDS011;63523;51.880;12.630;2023-09-19T09:38:30;8.85;;;2.20;;
74967;SDS011;63523;51.880;12.630;2023-09-19T09:41:09;8.57;;;2.63;;
74967;SDS011;63523;51.880;12.630;2023-09-19T09:43:38;10.77;;;2.88;;
74967;SDS011;63523;51.880;12.630;2023-09-19T09:46:07;8.40;;;2.35;;
74967;SDS011;63523;51.880;12.630;2023-09-19T09:51:38;10.07;;;2.55;;
74967;SDS011;63523;51.880;12.630;2023-09-19T09:54:11;9.88;;;2.33;;
74967;SDS011;63523;51.880;12.630;2023-09-19T09:56:55;7.78;;;2.03;;
74967;SDS011;63523;51.880;12.630;2023-09-19T10:02:21;4.10;;;1.17;;
74967;SDS011;63523;51.880;12.630;2023-09-19T10:05:14;7.05;;;1.30;;
74967;SDS011;63523;51.880;12.630;2023-09-19T10:07:44;6.03;;;1.20;;
74967;SDS011;63523;51.880;12.630;2023-09-19T10:10:35;4.57;;;1.30;;
74967;SDS011;63523;51.880;12.630;2023-09-19T10:13:08;4.80;;;1.17;;
74967;SDS011;63523;51.880;12.630;2023-09-19T10:15:39;6.03;;;1.60;;
74967;SDS011;63523;51.880;12.630;2023-09-19T10:18:07;8.75;;;1.83;;
74967;SDS011;63523;51.880;12.630;2023-09-19T10:20:36;4.18;;;1.00;;
74967;SDS011;63523;51.880;12.630;2023-09-19T10:23:05;3.78;;;1.20;;
74967;SDS011;63523;51.880;12.630;2023-09-19T10:25:37;4.57;;;1.08;;
74967;SDS011;63523;51.880;12.630;2023-09-19T10:28:05;4.90;;;1.03;;
74967;SDS011;63523;51.880;12.630;2023-09-19T10:30:36;4.43;;;1.20;;
74967;SDS011;63523;51.880;12.630;2023-09-19T10:33:04;3.72;;;1.05;;
74967;SDS011;63523;51.880;12.630;2023-09-19T10:35:32;5.10;;;1.13;;
74967;SDS011;63523;51.880;12.630;2023-09-19T10:38:00;5.13;;;1.10;;
74967;SDS011;63523;51.880;12.630;2023-09-19T10:40:29;5.93;;;1.10;;
74967;SDS011;63523;51.880;12.630;2023-09-19T10:43:01;4.13;;;1.15;;
74967;SDS011;63523;51.880;12.630;2023-09-19T10:45:30;4.18;;;0.90;;
74967;SDS011;63523;51.880;12.630;2023-09-19T10:47:57;3.70;;;1.10;;
74967;SDS011;63523;51.880;12.630;2023-09-19T10:50:23;6.55;;;1.05;;
74967;SDS011;63523;51.880;12.630;2023-09-19T10:52:49;7.50;;;0.90;;
74967;SDS011;63523;51.880;12.630;2023-09-19T10:55:23;5.05;;;0.95;;
74967;SDS011;63523;51.880;12.630;2023-09-19T10:57:50;4.97;;;1.35;;
74967;SDS011;63523;51.880;12.630;2023-09-19T11:00:16;5.65;;;1.00;;
74967;SDS011;63523;51.880;12.630;2023-09-19T11:20:16;4.53;;;1.00;;
74967;SDS011;63523;51.880;12.630;2023-09-19T11:30:40;3.70;;;1.05;;
74967;SDS011;63523;51.880;12.630;2023-09-19T11:44:33;6.35;;;1.13;;
74967;SDS011;63523;51.880;12.630;2023-09-19T11:49:16;5.57;;;0.98;;
74967;SDS011;63523;51.880;12.630;2023-09-19T11:51:46;3.30;;;0.75;;
74967;SDS011;63523;51.880;12.630;2023-09-19T11:54:13;7.43;;;1.17;;
74967;SDS011;63523;51.880;12.630;2023-09-19T11:56:43;8.25;;;1.77;;
74967;SDS011;63523;51.880;12.630;2023-09-19T11:59:10;7.10;;;1.40;;
74967;SDS011;63523;51.880;12.630;2023-09-19T12:01:35;6.70;;;1.83;;
74967;SDS011;63523;51.880;12.630;2023-09-19T12:04:08;7.33;;;1.73;;
74967;SDS011;63523;51.880;12.630;2023-09-19T12:06:36;4.68;;;0.77;;
74967;SDS011;63523;51.880;12.630;2023-09-19T12:09:03;5.85;;;1.20;;
74967;SDS011;63523;51.880;12.630;2023-09-19T12:11:40;6.75;;;1.35;;
74967;SDS011;63523;51.880;12.630;2023-09-19T12:14:08;4.50;;;0.90;;
74967;SDS011;63523;51.880;12.630;2023-09-19T12:16:34;5.10;;;1.20;;
74967;SDS011;63523;51.880;12.630;2023-09-19T12:19:17;5.30;;;0.80;;
74967;SDS011;63523;51.880;12.630;2023-09-19T12:21:50;5.30;;;1.03;;
74967;SDS011;63523;51.880;12.630;2023-09-19T12:24:19;6.75;;;1.50;;
74967;SDS011;63523;51.880;12.630;2023-09-19T12:26:45;7.22;;;1.00;;
74967;SDS011;63523;51.880;12.630;2023-09-19T12:29:19;4.73;;;0.93;;
74967;SDS011;63523;51.880;12.630;2023-09-19T12:31:53;5.28;;;0.60;;
74967;SDS011;63523;51.880;12.630;2023-09-19T12:34:25;4.03;;;0.77;;
74967;SDS011;63523;51.880;12.630;2023-09-19T12:39:44;3.58;;;0.80;;
74967;SDS011;63523;51.880;12.630;2023-09-19T12:42:21;4.53;;;0.73;;
74967;SDS011;63523;51.880;12.630;2023-09-19T12:44:48;4.65;;;0.57;;
74967;SDS011;63523;51.880;12.630;2023-09-19T12:47:21;5.50;;;0.75;;
74967;SDS011;63523;51.880;12.630;2023-09-19T12:50:05;4.65;;;0.77;;
74967;SDS011;63523;51.880;12.630;2023-09-19T12:52:37;4.68;;;0.80;;
74967;SDS011;63523;51.880;12.630;2023-09-19T12:55:03;4.33;;;0.60;;
74967;SDS011;63523;51.880;12.630;2023-09-19T12:57:31;3.20;;;0.55;;
74967;SDS011;63523;51.880;12.630;2023-09-19T13:00:00;3.17;;;0.70;;
74967;SDS011;63523;51.880;12.630;2023-09-19T13:02:31;5.32;;;0.80;;
74967;SDS011;63523;51.880;12.630;2023-09-19T13:04:56;4.70;;;0.80;;
74967;SDS011;63523;51.880;12.630;2023-09-19T13:07:43;4.07;;;0.80;;
74967;SDS011;63523;51.880;12.630;2023-09-19T13:10:11;4.53;;;0.65;;
74967;SDS011;63523;51.880;12.630;2023-09-19T13:12:39;5.53;;;0.70;;
74967;SDS011;63523;51.880;12.630;2023-09-19T13:15:10;6.70;;;0.80;;
74967;SDS011;63523;51.880;12.630;2023-09-19T13:17:47;5.70;;;0.70;;
74967;SDS011;63523;51.880;12.630;2023-09-19T13:20:21;4.47;;;0.70;;
74967;SDS011;63523;51.880;12.630;2023-09-19T13:22:52;5.20;;;0.70;;
74967;SDS011;63523;51.880;12.630;2023-09-19T13:25:25;4.95;;;0.75;;
74967;SDS011;63523;51.880;12.630;2023-09-19T13:27:54;5.90;;;0.63;;
74967;SDS011;63523;51.880;12.630;2023-09-19T13:30:21;5.78;;;1.05;;
74967;SDS011;63523;51.880;12.630;2023-09-19T13:32:52;5.00;;;0.60;;
74967;SDS011;63523;51.880;12.630;2023-09-19T13:35:18;4.07;;;0.50;;
74967;SDS011;63523;51.880;12.630;2023-09-19T13:37:45;7.63;;;1.05;;
74967;SDS011;63523;51.880;12.630;2023-09-19T13:40:14;5.03;;;0.80;;
74967;SDS011;63523;51.880;12.630;2023-09-19T13:42:40;7.13;;;0.82;;
74967;SDS011;63523;51.880;12.630;2023-09-19T13:45:06;4.38;;;0.60;;
74967;SDS011;63523;51.880;12.630;2023-09-19T13:47:32;6.38;;;0.90;;
74967;SDS011;63523;51.880;12.630;2023-09-19T13:49:58;10.23;;;1.00;;
74967;SDS011;63523;51.880;12.630;2023-09-19T13:52:25;6.05;;;0.90;;
74967;SDS011;63523;51.880;12.630;2023-09-19T13:54:53;4.90;;;0.98;;
74967;SDS011;63523;51.880;12.630;2023-09-19T13:57:19;4.63;;;0.70;;
74967;SDS011;63523;51.880;12.630;2023-09-19T13:59:44;6.90;;;0.97;;
74967;SDS011;63523;51.880;12.630;2023-09-19T14:02:09;4.87;;;0.83;;
74967;SDS011;63523;51.880;12.630;2023-09-19T14:04:35;3.70;;;0.90;;
74967;SDS011;63523;51.880;12.630;2023-09-19T14:07:00;5.03;;;0.77;;
74967;SDS011;63523;51.880;12.630;2023-09-19T14:09:26;4.45;;;0.98;;
74967;SDS011;63523;51.880;12.630;2023-09-19T14:11:52;5.20;;;0.50;;
74967;SDS011;63523;51.880;12.630;2023-09-19T14:14:18;3.22;;;0.60;;
74967;SDS011;63523;51.880;12.630;2023-09-19T14:16:45;4.65;;;0.90;;
74967;SDS011;63523;51.880;12.630;2023-09-19T14:19:11;3.78;;;0.88;;
74967;SDS011;63523;51.880;12.630;2023-09-19T14:21:37;4.77;;;0.93;;
74967;SDS011;63523;51.880;12.630;2023-09-19T14:24:04;5.30;;;0.80;;
74967;SDS011;63523;51.880;12.630;2023-09-19T14:26:31;6.13;;;0.80;;
74967;SDS011;63523;51.880;12.630;2023-09-19T14:28:56;4.17;;;0.83;;
74967;SDS011;63523;51.880;12.630;2023-09-19T14:31:21;6.13;;;0.90;;
74967;SDS011;63523;51.880;12.630;2023-09-19T14:33:52;4.70;;;0.97;;
74967;SDS011;63523;51.880;12.630;2023-09-19T14:36:18;3.35;;;0.65;;
74967;SDS011;63523;51.880;12.630;2023-09-19T14:38:44;5.43;;;0.97;;
74967;SDS011;63523;51.880;12.630;2023-09-19T14:41:09;5.90;;;0.80;;
74967;SDS011;63523;51.880;12.630;2023-09-19T14:43:35;5.00;;;0.88;;
74967;SDS011;63523;51.880;12.630;2023-09-19T14:46:03;4.33;;;0.97;;
74967;SDS011;63523;51.880;12.630;2023-09-19T14:48:32;3.60;;;0.85;;
74967;SDS011;63523;51.880;12.630;2023-09-19T14:51:02;6.37;;;0.90;;
74967;SDS011;63523;51.880;12.630;2023-09-19T14:53:28;4.60;;;0.90;;
74967;SDS011;63523;51.880;12.630;2023-09-19T14:55:53;4.03;;;0.80;;
74967;SDS011;63523;51.880;12.630;2023-09-19T14:58:20;4.00;;;0.98;;
74967;SDS011;63523;51.880;12.630;2023-09-19T15:00:46;4.03;;;0.85;;
74967;SDS011;63523;51.880;12.630;2023-09-19T15:03:11;6.13;;;0.97;;
74967;SDS011;63523;51.880;12.630;2023-09-19T15:05:38;4.57;;;0.77;;
74967;SDS011;63523;51.880;12.630;2023-09-19T15:08:04;4.80;;;0.83;;
74967;SDS011;63523;51.880;12.630;2023-09-19T15:10:30;4.22;;;1.20;;
74967;SDS011;63523;51.880;12.630;2023-09-19T15:12:56;5.28;;;1.20;;
74967;SDS011;63523;51.880;12.630;2023-09-19T15:15:21;4.43;;;0.97;;
74967;SDS011;63523;51.880;12.630;2023-09-19T15:17:47;6.43;;;1.00;;
74967;SDS011;63523;51.880;12.630;2023-09-19T15:20:12;5.73;;;1.30;;
74967;SDS011;63523;51.880;12.630;2023-09-19T15:22:39;4.47;;;0.90;;
74967;SDS011;63523;51.880;12.630;2023-09-19T15:25:04;4.23;;;1.00;;
74967;SDS011;63523;51.880;12.630;2023-09-19T15:27:30;4.05;;;1.10;;
74967;SDS011;63523;51.880;12.630;2023-09-19T15:29:57;3.83;;;1.00;;
74967;SDS011;63523;51.880;12.630;2023-09-19T15:32:24;6.10;;;1.08;;
74967;SDS011;63523;51.880;12.630;2023-09-19T15:34:50;4.73;;;0.80;;
74967;SDS011;63523;51.880;12.630;2023-09-19T15:37:15;5.57;;;0.90;;
74967;SDS011;63523;51.880;12.630;2023-09-19T15:39:41;5.07;;;1.00;;
74967;SDS011;63523;51.880;12.630;2023-09-19T15:42:06;4.53;;;1.23;;